Time;durP1;ratioP1;P1;durP2;ratioP2;P2;SDS_P1;SDS_P2;PMS_P1;PMS_P2;Temp;Humidity;BMP_temperature;BMP_pressure;BME280_temperature;BME280_humidity;BME280_pressure;Samples;Min_cycle;Max_cycle;Signal;HPM_P1;HPM_P2
2022/05/14 00:00:22;;;;;;;4.60;2.17;;;;;;;-145.52;100.00;57022.44;5073053;28;20115;-68
2022/05/14 00:02:48;;;;;;;4.68;1.83;;;;;;;-145.52;100.00;57022.44;5074431;28;20036;-67
2022/05/14 00:05:20;;;;;;;4.82;2.05;;;;;;;-145.52;100.00;57022.44;5075945;28;20032;-68
2022/05/14 00:07:46;;;;;;;3.13;1.65;;;;;;;-145.52;100.00;57022.44;5077017;28;20506;-68
2022/05/14 00:10:12;;;;;;;5.10;1.75;;;;;;;-145.52;100.00;57022.44;5079237;28;20036;-68
2022/05/14 00:15:21;;;;;;;6.03;2.00;;;;;;;-145.52;100.00;57022.44;5078204;28;20038;-68
2022/05/14 00:17:47;;;;;;;5.43;1.90;;;;;;;-145.52;100.00;57022.44;5074181;28;20275;-69
2022/05/14 00:20:14;;;;;;;2.72;1.70;;;;;;;-145.52;100.00;57022.44;5072749;28;20045;-69
2022/05/14 00:22:39;;;;;;;5.40;1.95;;;;;;;-145.52;100.00;57022.44;5076200;28;20072;-70
2022/05/14 00:25:05;;;;;;;3.00;1.70;;;;;;;-145.52;100.00;57022.44;5075177;28;20055;-69
2022/05/14 00:27:30;;;;;;;5.57;1.88;;;;;;;-145.52;100.00;57022.44;5072381;28;20031;-68
2022/05/14 00:29:57;;;;;;;4.65;2.00;;;;;;;-145.52;100.00;57022.44;5078591;28;20472;-68
2022/05/14 00:32:22;;;;;;;3.67;1.83;;;;;;;-145.52;100.00;57022.44;5066305;28;20044;-69
2022/05/14 00:34:47;;;;;;;6.60;2.00;;;;;;;-145.52;100.00;57022.44;5074089;28;20025;-69
2022/05/14 00:37:13;;;;;;;4.85;2.40;;;;;;;-145.52;100.00;57022.44;5073559;28;20028;-69
2022/05/14 00:39:38;;;;;;;5.15;1.70;;;;;;;-145.52;100.00;57022.44;5065435;28;20036;-68
2022/05/14 00:42:04;;;;;;;4.40;1.77;;;;;;;-145.52;100.00;57022.44;5071433;28;20073;-68
2022/05/14 00:44:30;;;;;;;4.68;1.83;;;;;;;-145.52;100.00;57022.44;5076722;28;20040;-68
2022/05/14 00:46:59;;;;;;;4.50;1.67;;;;;;;-145.52;100.00;57022.44;5072977;28;20032;-67
2022/05/14 00:49:26;;;;;;;3.55;2.05;;;;;;;-145.52;100.00;57022.44;5062120;28;20121;-68
2022/05/14 00:51:52;;;;;;;8.05;2.15;;;;;;;-145.52;100.00;57022.44;5070874;28;20024;-68
2022/05/14 00:54:23;;;;;;;3.35;1.83;;;;;;;-145.52;100.00;57022.44;5072184;28;20044;-69
2022/05/14 00:56:53;;;;;;;3.03;1.60;;;;;;;-145.52;100.00;57022.44;5073720;28;20040;-66
2022/05/14 00:59:21;;;;;;;4.32;1.65;;;;;;;-145.52;100.00;57022.44;5071311;28;20025;-68
2022/05/14 01:01:48;;;;;;;6.70;1.90;;;;;;;-145.52;100.00;57022.44;5074878;28;20036;-68
2022/05/14 01:04:14;;;;;;;4.90;1.90;;;;;;;-145.52;100.00;57022.44;5071578;28;20434;-68
2022/05/14 01:06:57;;;;;;;5.78;1.50;;;;;;;-145.52;100.00;57022.44;5072967;28;20408;-67
2022/05/14 01:09:22;;;;;;;2.40;1.80;;;;;;;-145.52;100.00;57022.44;5071501;28;20119;-68
2022/05/14 01:11:50;;;;;;;6.75;1.95;;;;;;;-145.52;100.00;57022.44;5072728;28;20183;-68
2022/05/14 01:14:15;;;;;;;3.47;1.80;;;;;;;-145.52;100.00;57022.44;5070735;28;20039;-68
2022/05/14 01:16:40;;;;;;;4.57;1.83;;;;;;;-145.52;100.00;57022.44;5076125;28;20028;-69
2022/05/14 01:19:07;;;;;;;6.00;1.98;;;;;;;-145.52;100.00;57022.44;5072649;28;20472;-68
2022/05/14 01:21:57;;;;;;;3.22;1.50;;;;;;;-145.52;100.00;57022.44;5072703;28;20533;-69
2022/05/14 01:27:12;;;;;;;5.70;2.20;;;;;;;-145.52;100.00;57022.44;5077501;28;20039;-70
2022/05/14 01:29:38;;;;;;;3.90;2.17;;;;;;;-145.52;100.00;57022.44;5072358;28;20037;-69
2022/05/14 01:32:04;;;;;;;3.33;1.88;;;;;;;-145.52;100.00;57022.44;5071372;28;20479;-67
2022/05/14 01:34:34;;;;;;;4.70;2.03;;;;;;;-145.52;100.00;57022.44;5050948;28;20066;-69
2022/05/14 01:37:01;;;;;;;3.90;1.83;;;;;;;-145.52;100.00;57022.44;5070873;28;20025;-68
2022/05/14 01:39:27;;;;;;;5.00;2.00;;;;;;;-145.52;100.00;57022.44;5070892;28;20040;-68
2022/05/14 01:41:53;;;;;;;5.40;1.95;;;;;;;-145.52;100.00;57022.44;5073480;28;20044;-68
2022/05/14 01:44:19;;;;;;;5.55;2.00;;;;;;;-145.52;100.00;57022.44;5070159;28;20029;-68
2022/05/14 01:46:45;;;;;;;5.60;1.98;;;;;;;-145.52;100.00;57022.44;5073630;28;20479;-68
2022/05/14 01:49:12;;;;;;;3.38;1.60;;;;;;;-145.52;100.00;57022.44;5072531;28;20082;-68
2022/05/14 01:51:38;;;;;;;8.77;2.53;;;;;;;-145.52;100.00;57022.44;5071476;28;20028;-69
2022/05/14 01:54:04;;;;;;;3.15;1.60;;;;;;;-145.52;100.00;57022.44;5071476;28;20028;-65
2022/05/14 01:56:30;;;;;;;5.65;1.98;;;;;;;-145.52;100.00;57022.44;5077933;28;20480;-68
2022/05/14 01:58:56;;;;;;;5.18;2.10;;;;;;;-145.52;100.00;57022.44;5075479;28;20037;-68
2022/05/14 02:01:27;;;;;;;5.30;1.77;;;;;;;-145.52;100.00;57022.44;5071410;28;20063;-68
2022/05/14 02:03:55;;;;;;;4.00;1.98;;;;;;;-145.52;100.00;57022.44;5072567;28;20028;-68
2022/05/14 02:06:22;;;;;;;3.55;2.00;;;;;;;-145.52;100.00;57022.44;5071798;28;20487;-69
2022/05/14 02:08:48;;;;;;;5.00;1.70;;;;;;;-145.52;100.00;57022.44;5072706;28;20055;-69
2022/05/14 02:11:14;;;;;;;6.78;2.60;;;;;;;-145.52;100.00;57022.44;5071990;28;20060;-68
2022/05/14 02:13:41;;;;;;;3.95;2.17;;;;;;;-145.52;100.00;57022.44;5073054;28;20115;-69
2022/05/14 02:16:06;;;;;;;5.75;2.40;;;;;;;-145.52;100.00;57022.44;5071960;28;20093;-68
2022/05/14 02:18:32;;;;;;;4.50;2.50;;;;;;;-145.52;100.00;57022.44;5072979;28;20040;-68
2022/05/14 02:20:58;;;;;;;8.35;2.53;;;;;;;-145.52;100.00;57022.44;5081857;28;20040;-69
2022/05/14 02:23:23;;;;;;;5.22;2.30;;;;;;;-145.52;100.00;57022.44;5089260;28;20043;-69
2022/05/14 02:25:49;;;;;;;5.43;2.50;;;;;;;-145.52;100.00;57022.44;5092309;28;20036;-68
2022/05/14 02:28:16;;;;;;;5.68;2.25;;;;;;;-145.52;100.00;57022.44;5095536;28;20020;-69
2022/05/14 02:30:42;;;;;;;6.65;2.58;;;;;;;-145.52;100.00;57022.44;5075756;28;20093;-69
2022/05/14 02:33:07;;;;;;;6.80;2.10;;;;;;;-145.52;100.00;57022.44;5075886;28;20112;-68
2022/05/14 02:35:33;;;;;;;4.10;1.92;;;;;;;-145.52;100.00;57022.44;5075416;28;20391;-69
2022/05/14 02:37:59;;;;;;;4.75;2.58;;;;;;;-145.52;100.00;57022.44;5075939;28;20028;-68
2022/05/14 02:40:24;;;;;;;5.30;2.22;;;;;;;-145.52;100.00;57022.44;5076600;28;20646;-67
2022/05/14 02:42:50;;;;;;;5.93;2.30;;;;;;;-145.52;100.00;57022.44;5087736;28;20040;-69
2022/05/14 02:45:15;;;;;;;5.32;2.67;;;;;;;-145.52;100.00;57022.44;5076284;28;20036;-68
2022/05/14 02:47:41;;;;;;;3.53;1.95;;;;;;;-145.52;100.00;57022.44;5096111;28;20120;-70
2022/05/14 02:50:08;;;;;;;6.10;2.22;;;;;;;-145.52;100.00;57022.44;5095253;28;20483;-69
2022/05/14 02:52:34;;;;;;;4.68;2.35;;;;;;;-145.52;100.00;57022.44;5076573;28;20111;-69
2022/05/14 02:55:00;;;;;;;5.88;2.30;;;;;;;-145.52;100.00;57022.44;5083480;28;20448;-69
2022/05/14 02:57:25;;;;;;;8.50;3.10;;;;;;;-145.52;100.00;57022.44;5096848;28;20024;-69
2022/05/14 02:59:51;;;;;;;5.13;2.47;;;;;;;-145.52;100.00;57022.44;5086370;28;20456;-70
2022/05/14 03:02:17;;;;;;;4.70;2.20;;;;;;;-145.52;100.00;57022.44;5096590;28;20471;-69
2022/05/14 03:04:44;;;;;;;6.72;2.63;;;;;;;-145.52;100.00;57022.44;5089689;28;20491;-70
2022/05/14 03:07:11;;;;;;;4.97;2.25;;;;;;;-145.52;100.00;57022.44;5076310;28;20106;-70
2022/05/14 03:09:39;;;;;;;7.07;2.63;;;;;;;-145.52;100.00;57022.44;5083011;28;20126;-69
2022/05/14 03:12:05;;;;;;;5.50;2.33;;;;;;;-145.52;100.00;57022.44;5095017;28;20498;-68
2022/05/14 03:14:31;;;;;;;5.10;2.20;;;;;;;-145.52;100.00;57022.44;5095739;28;20034;-69
2022/05/14 03:16:58;;;;;;;4.03;1.80;;;;;;;-145.52;100.00;57022.44;5091766;28;20052;-69
2022/05/14 03:19:23;;;;;;;5.10;2.15;;;;;;;-145.52;100.00;57022.44;5095017;28;20442;-70
2022/05/14 03:21:49;;;;;;;7.85;2.90;;;;;;;-145.52;100.00;57022.44;5096313;28;20062;-70
2022/05/14 03:24:14;;;;;;;3.65;2.13;;;;;;;-145.52;100.00;57022.44;5096326;28;20090;-69
2022/05/14 03:26:41;;;;;;;3.22;1.85;;;;;;;-145.52;100.00;57022.44;5091490;28;20040;-70
2022/05/14 03:29:08;;;;;;;5.82;1.50;;;;;;;-145.52;100.00;57022.44;5087186;28;20029;-70
2022/05/14 03:31:34;;;;;;;4.70;2.13;;;;;;;-145.52;100.00;57022.44;5075053;28;20043;-71
2022/05/14 03:34:00;;;;;;;7.43;2.33;;;;;;;-145.52;100.00;57022.44;5075728;28;20075;-69
2022/05/14 03:36:27;;;;;;;4.32;1.73;;;;;;;-145.52;100.00;57022.44;5073680;28;20039;-69
2022/05/14 03:38:54;;;;;;;6.72;2.08;;;;;;;-145.52;100.00;57022.44;5093153;28;20036;-69
2022/05/14 03:41:21;;;;;;;5.75;1.98;;;;;;;-145.52;100.00;57022.44;5092349;28;20028;-70
2022/05/14 03:43:47;;;;;;;6.38;2.35;;;;;;;-145.52;100.00;57022.44;5096131;28;20032;-70
2022/05/14 03:46:13;;;;;;;7.38;2.00;;;;;;;-145.52;100.00;57022.44;5093280;28;20181;-69
2022/05/14 03:48:38;;;;;;;3.25;1.55;;;;;;;-145.52;100.00;57022.44;5093986;28;20119;-70
2022/05/14 03:51:05;;;;;;;5.72;1.80;;;;;;;-145.52;100.00;57022.44;5085035;28;20028;-69
2022/05/14 03:53:32;;;;;;;6.03;2.38;;;;;;;-145.52;100.00;57022.44;5075604;28;20051;-69
2022/05/14 03:55:57;;;;;;;3.33;1.60;;;;;;;-145.52;100.00;57022.44;5074450;28;20025;-69
2022/05/14 03:58:23;;;;;;;6.57;2.30;;;;;;;-145.52;100.00;57022.44;5089089;28;20124;-69
2022/05/14 04:00:49;;;;;;;5.57;1.80;;;;;;;-145.52;100.00;57022.44;5094095;28;20040;-70
2022/05/14 04:03:15;;;;;;;4.20;2.00;;;;;;;-145.52;100.00;57022.44;5092866;28;20036;-70
2022/05/14 04:05:40;;;;;;;4.35;1.90;;;;;;;-145.52;100.00;57022.44;5093414;28;20087;-70
2022/05/14 04:08:06;;;;;;;4.25;2.00;;;;;;;-145.52;100.00;57022.44;5092305;28;20082;-69
2022/05/14 04:10:32;;;;;;;6.63;2.10;;;;;;;-145.52;100.00;57022.44;5095325;28;20097;-70
2022/05/14 04:12:58;;;;;;;6.50;1.77;;;;;;;-145.52;100.00;57022.44;5090760;28;20111;-70
2022/05/14 04:15:25;;;;;;;5.60;2.10;;;;;;;-145.52;100.00;57022.44;5091026;28;20079;-69
2022/05/14 04:17:52;;;;;;;3.92;1.58;;;;;;;-145.52;100.00;57022.44;5076082;28;20423;-69
2022/05/14 04:20:18;;;;;;;6.40;1.90;;;;;;;-145.52;100.00;57022.44;5068015;28;20033;-68
2022/05/14 04:22:43;;;;;;;7.40;2.00;;;;;;;-145.52;100.00;57022.44;5075286;28;20081;-68
2022/05/14 04:25:11;;;;;;;8.10;2.00;;;;;;;-145.52;100.00;57022.44;5073524;28;20082;-68
2022/05/14 04:27:36;;;;;;;4.88;1.77;;;;;;;-145.52;100.00;57022.44;5076531;28;20036;-69
2022/05/14 04:30:03;;;;;;;3.17;1.50;;;;;;;-145.52;100.00;57022.44;5078267;28;20078;-69
2022/05/14 04:32:29;;;;;;;4.30;1.60;;;;;;;-145.52;100.00;57022.44;5073772;28;20461;-69
2022/05/14 04:34:55;;;;;;;4.97;1.65;;;;;;;-145.52;100.00;57022.44;5056906;28;20060;-69
2022/05/14 04:37:21;;;;;;;8.73;1.73;;;;;;;-145.52;100.00;57022.44;5087055;28;20036;-69
2022/05/14 04:39:46;;;;;;;10.52;2.10;;;;;;;-145.52;100.00;57022.44;5092790;28;20467;-69
2022/05/14 04:42:12;;;;;;;5.65;1.77;;;;;;;-145.52;100.00;57022.44;5093603;28;20036;-69
2022/05/14 04:44:38;;;;;;;4.50;1.45;;;;;;;-145.52;100.00;57022.44;5093286;28;20528;-67
2022/05/14 04:47:04;;;;;;;6.80;1.88;;;;;;;-145.52;100.00;57022.44;5077434;28;20392;-66
2022/05/14 04:49:30;;;;;;;5.05;1.60;;;;;;;-145.52;100.00;57022.44;5075998;28;20091;-70
2022/05/14 04:51:56;;;;;;;7.63;2.33;;;;;;;-145.52;100.00;57022.44;5077441;28;20036;-69
2022/05/14 04:54:22;;;;;;;5.03;1.60;;;;;;;-145.52;100.00;57022.44;5073090;28;20426;-69
2022/05/14 04:56:47;;;;;;;8.93;2.28;;;;;;;-145.52;100.00;57022.44;5073346;28;20037;-70
2022/05/14 04:59:14;;;;;;;7.55;2.05;;;;;;;-145.52;100.00;57022.44;5079281;28;20028;-69
2022/05/14 05:03:16;;;;;;;6.55;1.77;;;;;;;-145.52;100.00;57022.44;5071424;28;20059;-69
2022/05/14 05:04:31;;;;;;;6.30;2.08;;;;;;;-145.52;100.00;57022.44;5072059;28;20167;-69
2022/05/14 05:06:56;;;;;;;7.97;2.00;;;;;;;-145.52;100.00;57022.44;5079835;28;20088;-70
2022/05/14 05:09:22;;;;;;;5.28;2.00;;;;;;;-145.52;100.00;57022.44;5073573;28;20175;-71
2022/05/14 05:11:47;;;;;;;4.72;1.80;;;;;;;-145.52;100.00;57022.44;5073354;28;20048;-70
2022/05/14 05:14:13;;;;;;;8.20;2.05;;;;;;;-145.52;100.00;57022.44;5071196;28;20032;-72
2022/05/14 05:16:38;;;;;;;5.85;1.73;;;;;;;-145.52;100.00;57022.44;5072431;28;20039;-68
2022/05/14 05:19:03;;;;;;;5.43;1.70;;;;;;;-145.52;100.00;57022.44;5072908;28;20361;-74
2022/05/14 05:21:29;;;;;;;7.00;2.17;;;;;;;-145.52;100.00;57022.44;5070927;28;20044;-74
2022/05/14 05:23:54;;;;;;;7.70;2.05;;;;;;;-145.52;100.00;57022.44;5048620;28;20044;-73
2022/05/14 05:26:20;;;;;;;10.77;2.22;;;;;;;-145.52;100.00;57022.44;5070462;28;20032;-73
2022/05/14 05:28:45;;;;;;;8.82;2.10;;;;;;;-145.52;100.00;57022.44;5076925;28;20036;-74
2022/05/14 05:31:11;;;;;;;5.78;2.00;;;;;;;-145.52;100.00;57022.44;5037320;28;20037;-74
2022/05/14 05:33:36;;;;;;;8.82;2.22;;;;;;;-145.52;100.00;57022.44;5053526;28;20033;-72
2022/05/14 05:36:02;;;;;;;7.72;2.10;;;;;;;-145.52;100.00;57022.44;5072139;28;20468;-75
2022/05/14 05:38:27;;;;;;;7.95;2.20;;;;;;;-145.52;100.00;57022.44;5038655;28;20044;-74
2022/05/14 05:40:52;;;;;;;6.90;3.97;;;;;;;-145.52;100.00;57022.44;5069927;28;20048;-74
2022/05/14 05:43:18;;;;;;;6.90;2.47;;;;;;;-145.52;100.00;57022.44;5072638;28;20044;-74
2022/05/14 05:45:46;;;;;;;6.75;2.78;;;;;;;-145.52;100.00;57022.44;5069946;28;20060;-74
2022/05/14 05:48:11;;;;;;;7.15;2.03;;;;;;;-145.52;100.00;57022.44;5064948;28;20059;-74
2022/05/14 05:50:38;;;;;;;7.03;2.35;;;;;;;-145.52;100.00;57022.44;5071407;28;20072;-74
2022/05/14 05:53:04;;;;;;;7.82;2.00;;;;;;;-145.52;100.00;57022.44;5070832;28;20107;-73
2022/05/14 05:58:17;;;;;;;8.02;2.05;;;;;;;-145.52;100.00;57022.44;5063308;28;20043;-72
2022/05/14 06:00:42;;;;;;;6.55;2.22;;;;;;;-145.52;100.00;57022.44;5068828;28;20036;-73
2022/05/14 06:03:08;;;;;;;5.80;2.35;;;;;;;-145.52;100.00;57022.44;5070912;28;20377;-73
2022/05/14 06:05:34;;;;;;;5.30;2.00;;;;;;;-145.52;100.00;57022.44;5054358;28;20041;-72
2022/05/14 06:07:59;;;;;;;5.22;1.85;;;;;;;-145.52;100.00;57022.44;5057238;28;20041;-72
2022/05/14 06:10:25;;;;;;;5.63;2.20;;;;;;;-145.52;100.00;57022.44;5051998;28;20041;-73
2022/05/14 06:12:51;;;;;;;8.15;2.30;;;;;;;-145.52;100.00;57022.44;5053179;28;20037;-73
2022/05/14 06:15:18;;;;;;;11.20;2.58;;;;;;;-145.52;100.00;57022.44;5079789;28;20036;-71
2022/05/14 06:17:44;;;;;;;8.48;2.58;;;;;;;-145.52;100.00;57022.44;5076308;28;20039;-72
2022/05/14 06:20:17;;;;;;;6.95;2.38;;;;;;;-145.52;100.00;57022.44;5072703;28;20115;-71
2022/05/14 06:22:43;;;;;;;10.05;2.45;;;;;;;-145.52;100.00;57022.44;5085186;28;20086;-70
2022/05/14 06:25:10;;;;;;;11.57;2.83;;;;;;;-145.52;100.00;57022.44;5070287;28;20047;-70
2022/05/14 06:27:35;;;;;;;8.90;2.30;;;;;;;-145.52;100.00;57022.44;5091857;28;20024;-71
2022/05/14 06:30:01;;;;;;;9.65;2.22;;;;;;;-145.52;100.00;57022.44;5080745;28;20037;-72
2022/05/14 06:32:26;;;;;;;7.68;2.55;;;;;;;-145.52;100.00;57022.44;5035216;28;20771;-71
2022/05/14 06:34:52;;;;;;;10.85;2.65;;;;;;;-145.52;100.00;57022.44;5069315;28;20397;-70
2022/05/14 06:37:17;;;;;;;9.80;2.63;;;;;;;-145.52;100.00;57022.44;5091812;28;20498;-71
2022/05/14 06:39:43;;;;;;;7.07;2.33;;;;;;;-145.52;100.00;57022.44;5090829;28;20028;-72
2022/05/14 06:42:11;;;;;;;7.85;2.28;;;;;;;-145.52;100.00;57022.44;5076530;28;20825;-69
2022/05/14 06:44:36;;;;;;;8.35;2.65;;;;;;;-145.52;100.00;57022.44;5072146;28;20031;-70
2022/05/14 06:47:02;;;;;;;11.75;2.85;;;;;;;-145.52;100.00;57022.44;5070196;28;20029;-70
2022/05/14 06:49:27;;;;;;;9.65;2.65;;;;;;;-145.52;100.00;57022.44;5071288;28;20116;-72
2022/05/14 06:51:57;;;;;;;6.18;2.10;;;;;;;-145.52;100.00;57022.44;5069613;28;20365;-70
2022/05/14 06:54:22;;;;;;;9.57;2.40;;;;;;;-145.52;100.00;57022.44;5065809;28;20453;-70
2022/05/14 06:56:48;;;;;;;6.55;1.98;;;;;;;-145.52;100.00;57022.44;5072286;28;20048;-71
2022/05/14 06:59:16;;;;;;;8.70;2.58;;;;;;;-145.52;100.00;57022.44;5070206;28;20476;-72
2022/05/14 07:01:45;;;;;;;7.65;2.63;;;;;;;-145.52;100.00;57022.44;5071801;28;20043;-72
2022/05/14 07:06:57;;;;;;;6.05;2.20;;;;;;;-145.52;100.00;57022.44;5072688;28;20442;-72
2022/05/14 07:09:27;;;;;;;10.85;2.67;;;;;;;-145.52;100.00;57022.44;5071225;28;20472;-72
2022/05/14 07:11:59;;;;;;;10.60;2.38;;;;;;;-145.52;100.00;57022.44;5072585;28;20103;-72
2022/05/14 07:14:27;;;;;;;8.30;2.40;;;;;;;-145.52;100.00;57022.44;5075345;28;20038;-71
2022/05/14 07:16:54;;;;;;;8.77;2.70;;;;;;;-145.52;100.00;57022.44;5077667;28;20506;-72
2022/05/14 07:19:20;;;;;;;10.60;2.72;;;;;;;-145.52;100.00;57022.44;5074890;28;20032;-71
2022/05/14 07:21:47;;;;;;;9.68;2.75;;;;;;;-145.52;100.00;57022.44;5078268;28;20040;-73
2022/05/14 07:24:19;;;;;;;8.10;2.60;;;;;;;-145.52;100.00;57022.44;5075631;28;20094;-73
2022/05/14 07:26:46;;;;;;;9.17;2.60;;;;;;;-145.52;100.00;57022.44;5075578;28;20032;-70
2022/05/14 07:29:14;;;;;;;10.40;3.00;;;;;;;-145.52;100.00;57022.44;5058107;28;20044;-73
2022/05/14 07:31:40;;;;;;;10.15;2.42;;;;;;;-145.52;100.00;57022.44;5071816;28;21515;-74
2022/05/14 07:34:06;;;;;;;6.30;2.40;;;;;;;-145.52;100.00;57022.44;5087114;28;20028;-74
2022/05/14 07:36:38;;;;;;;8.43;2.45;;;;;;;-145.52;100.00;57022.44;5072921;28;20090;-72
2022/05/14 07:39:07;;;;;;;8.73;2.33;;;;;;;-145.52;100.00;57022.44;5071199;28;20025;-72
2022/05/14 07:41:37;;;;;;;11.18;2.90;;;;;;;-145.52;100.00;57022.44;5073425;28;20024;-74
2022/05/14 07:44:05;;;;;;;6.97;2.58;;;;;;;-145.52;100.00;57022.44;5072526;28;20025;-74
2022/05/14 07:46:34;;;;;;;9.15;2.40;;;;;;;-145.52;100.00;57022.44;5072134;28;20075;-72
2022/05/14 07:49:02;;;;;;;10.25;3.03;;;;;;;-145.52;100.00;57022.44;5072613;28;20464;-72
2022/05/14 07:51:28;;;;;;;9.93;2.90;;;;;;;-145.52;100.00;57022.44;5070154;28;20033;-73
2022/05/14 07:53:54;;;;;;;11.30;3.00;;;;;;;-145.52;100.00;57022.44;5072712;28;20044;-73
2022/05/14 07:56:19;;;;;;;11.02;3.05;;;;;;;-145.52;100.00;57022.44;5073098;28;20040;-73
2022/05/14 07:58:47;;;;;;;9.57;2.70;;;;;;;-145.52;100.00;57022.44;5072539;28;20093;-73
2022/05/14 08:01:13;;;;;;;6.97;2.80;;;;;;;-145.52;100.00;57022.44;5071556;28;20552;-74
2022/05/14 08:03:39;;;;;;;8.98;2.65;;;;;;;-145.52;100.00;57022.44;5073593;28;20093;-73
2022/05/14 08:06:05;;;;;;;11.63;3.13;;;;;;;-145.52;100.00;57022.44;5073802;28;20064;-74
2022/05/14 08:08:30;;;;;;;8.02;2.80;;;;;;;-145.52;100.00;57022.44;5076338;28;20048;-73
2022/05/14 08:10:56;;;;;;;8.95;2.80;;;;;;;-145.52;100.00;57022.44;5071943;28;20045;-71
2022/05/14 08:13:23;;;;;;;7.95;2.60;;;;;;;-145.52;100.00;57022.44;5071143;28;20037;-71
2022/05/14 08:15:50;;;;;;;8.25;3.00;;;;;;;-145.52;100.00;57022.44;5073497;28;20036;-70
2022/05/14 08:18:17;;;;;;;8.40;2.75;;;;;;;-145.52;100.00;57022.44;5074889;28;20036;-73
2022/05/14 08:20:46;;;;;;;11.15;2.70;;;;;;;-145.52;100.00;57022.44;5073945;28;20044;-72
2022/05/14 08:25:59;;;;;;;8.30;2.63;;;;;;;-145.52;100.00;57022.44;5073637;28;20093;-73
2022/05/14 08:28:25;;;;;;;9.15;2.20;;;;;;;-145.52;100.00;57022.44;5069897;28;20036;-69
2022/05/14 08:30:51;;;;;;;7.63;2.20;;;;;;;-145.52;100.00;57022.44;5072813;28;20032;-72
2022/05/14 08:33:16;;;;;;;9.50;2.50;;;;;;;-145.52;100.00;57022.44;5070758;28;20098;-70
2022/05/14 08:35:42;;;;;;;12.23;2.60;;;;;;;-145.52;100.00;57022.44;5071399;28;20039;-70
2022/05/14 08:38:12;;;;;;;9.30;2.70;;;;;;;-145.52;100.00;57022.44;5072887;28;20040;-69
2022/05/14 08:40:56;;;;;;;9.02;2.65;;;;;;;-145.52;100.00;57022.44;5073065;28;20029;-72
2022/05/14 08:43:30;;;;;;;9.23;2.58;;;;;;;-145.52;100.00;57022.44;5073622;28;20029;-71
2022/05/14 08:45:55;;;;;;;6.30;2.63;;;;;;;-145.52;100.00;57022.44;5074770;28;20036;-72
2022/05/14 08:48:32;;;;;;;4.53;2.10;;;;;;;-145.52;100.00;57022.44;5074197;28;20037;-72
2022/05/14 08:51:32;;;;;;;8.00;2.65;;;;;;;-145.52;100.00;57022.44;5072704;28;20545;-70
2022/05/14 08:53:59;;;;;;;8.60;2.38;;;;;;;-145.52;100.00;57022.44;5064848;28;20051;-71
2022/05/14 08:56:25;;;;;;;10.85;2.70;;;;;;;-145.52;100.00;57022.44;5071200;28;20086;-70
2022/05/14 08:59:18;;;;;;;10.30;2.72;;;;;;;-145.52;100.00;57022.44;5073862;28;20471;-70
2022/05/14 09:01:45;;;;;;;10.75;2.90;;;;;;;-145.52;100.00;57022.44;5070849;28;20032;-69
2022/05/14 09:04:13;;;;;;;11.88;2.90;;;;;;;-145.52;100.00;57022.44;5071535;28;20052;-70
2022/05/14 09:06:40;;;;;;;8.43;2.45;;;;;;;-145.52;100.00;57022.44;5074030;28;20530;-70
2022/05/14 09:09:07;;;;;;;8.48;1.92;;;;;;;-145.52;100.00;57022.44;5074254;28;20032;-69
2022/05/14 09:11:56;;;;;;;6.70;2.22;;;;;;;-145.52;100.00;57022.44;5074191;28;20035;-70
2022/05/14 09:14:26;;;;;;;12.10;2.80;;;;;;;-145.52;100.00;57022.44;5072718;28;20369;-70
2022/05/14 09:17:00;;;;;;;10.18;2.83;;;;;;;-145.52;100.00;57022.44;5072557;28;20040;-70
2022/05/14 09:19:38;;;;;;;13.40;3.60;;;;;;;-145.52;100.00;57022.44;5072670;28;20028;-69
2022/05/14 09:22:22;;;;;;;8.57;2.75;;;;;;;-145.52;100.00;57022.44;5073756;28;20043;-70
2022/05/14 09:25:00;;;;;;;9.05;2.95;;;;;;;-145.52;100.00;57022.44;5072487;28;20027;-70
2022/05/14 09:27:40;;;;;;;11.93;3.40;;;;;;;-145.52;100.00;57022.44;5074004;28;20582;-70
2022/05/14 09:30:10;;;;;;;8.73;2.58;;;;;;;-145.52;100.00;57022.44;5073464;28;20065;-69
2022/05/14 09:32:44;;;;;;;10.38;2.90;;;;;;;-145.52;100.00;57022.44;5073868;28;20045;-70
2022/05/14 09:35:17;;;;;;;8.27;3.00;;;;;;;-145.52;100.00;57022.44;5073333;28;20365;-71
2022/05/14 09:37:42;;;;;;;12.32;3.03;;;;;;;-145.52;100.00;57022.44;5073717;28;20024;-70
2022/05/14 09:40:13;;;;;;;10.55;3.50;;;;;;;-145.52;100.00;57022.44;5073488;28;20483;-70
2022/05/14 09:42:45;;;;;;;9.50;2.45;;;;;;;-145.52;100.00;57022.44;5073800;28;20024;-69
2022/05/14 09:45:22;;;;;;;9.68;2.70;;;;;;;-145.52;100.00;57022.44;5072274;28;20059;-70
2022/05/14 09:47:48;;;;;;;8.45;2.67;;;;;;;-145.52;100.00;57022.44;5073261;28;20495;-70
2022/05/14 09:50:22;;;;;;;10.25;2.75;;;;;;;-145.52;100.00;57022.44;5073308;28;20079;-71
2022/05/14 09:53:00;;;;;;;6.93;2.30;;;;;;;-145.52;100.00;57022.44;5073337;28;20495;-71
2022/05/14 09:55:42;;;;;;;7.22;2.50;;;;;;;-145.52;100.00;57022.44;5073354;28;20033;-71
2022/05/14 09:58:55;;;;;;;13.13;2.92;;;;;;;-145.52;100.00;57022.44;5073363;28;20028;-70
2022/05/14 10:01:33;;;;;;;8.30;2.38;;;;;;;-145.52;100.00;57022.44;5071012;28;20395;-70
2022/05/14 10:04:19;;;;;;;7.85;2.35;;;;;;;-145.52;100.00;57022.44;5073575;28;20479;-70
2022/05/14 10:06:55;;;;;;;13.23;2.38;;;;;;;-145.52;100.00;57022.44;5068877;28;20487;-70
2022/05/14 10:09:32;;;;;;;6.45;2.25;;;;;;;-145.52;100.00;57022.44;5072431;28;20024;-71
2022/05/14 10:12:23;;;;;;;7.55;2.35;;;;;;;-145.52;100.00;57022.44;5060565;28;20472;-69
2022/05/14 10:15:05;;;;;;;12.30;2.80;;;;;;;-145.52;100.00;57022.44;5065301;28;20426;-70
2022/05/14 10:18:03;;;;;;;10.15;2.80;;;;;;;-145.52;100.00;57022.44;5072779;28;20028;-71
2022/05/14 10:20:34;;;;;;;10.15;2.42;;;;;;;-145.52;100.00;57022.44;5073111;28;20116;-70
2022/05/14 10:29:24;;;;;;;9.57;2.20;;;;;;;-145.52;100.00;57022.44;5072719;28;20070;-70
2022/05/14 10:31:56;;;;;;;8.45;2.60;;;;;;;-145.52;100.00;57022.44;5073129;28;20082;-70
2022/05/14 10:34:34;;;;;;;11.00;2.33;;;;;;;-145.52;100.00;57022.44;5070806;28;20112;-70
2022/05/14 10:37:04;;;;;;;11.48;2.83;;;;;;;-145.52;100.00;57022.44;5072832;28;20036;-70
2022/05/14 10:39:38;;;;;;;7.53;2.30;;;;;;;-145.52;100.00;57022.44;5072049;28;20086;-71
2022/05/14 10:42:30;;;;;;;7.07;1.60;;;;;;;-145.52;100.00;57022.44;5069274;28;20024;-70
2022/05/14 10:45:09;;;;;;;11.05;2.58;;;;;;;-145.52;100.00;57022.44;5065166;28;20040;-71
2022/05/14 10:47:39;;;;;;;8.95;2.30;;;;;;;-145.52;100.00;57022.44;5071886;28;20036;-71
2022/05/14 10:50:12;;;;;;;9.02;2.30;;;;;;;-145.52;100.00;57022.44;5075913;28;20111;-71
2022/05/14 10:52:39;;;;;;;6.82;2.30;;;;;;;-145.52;100.00;57022.44;5072325;28;20029;-72
2022/05/14 10:55:25;;;;;;;7.90;2.30;;;;;;;-145.52;100.00;57022.44;5066825;28;20186;-71
2022/05/14 10:58:01;;;;;;;10.48;2.60;;;;;;;-145.52;100.00;57022.44;5074712;28;20056;-71
2022/05/14 11:00:30;;;;;;;5.93;1.90;;;;;;;-145.52;100.00;57022.44;5074947;28;20036;-72
2022/05/14 11:02:55;;;;;;;6.07;2.20;;;;;;;-145.52;100.00;57022.44;5076521;28;20112;-72
2022/05/14 11:05:29;;;;;;;12.57;2.17;;;;;;;-145.52;100.00;57022.44;5075764;28;20116;-69
2022/05/14 11:08:07;;;;;;;7.38;2.25;;;;;;;-145.52;100.00;57022.44;5074765;28;20052;-72
2022/05/14 11:10:35;;;;;;;5.57;2.20;;;;;;;-145.52;100.00;57022.44;5076422;28;20055;-70
2022/05/14 11:13:23;;;;;;;8.10;2.30;;;;;;;-145.52;100.00;57022.44;5076143;28;20028;-71
2022/05/14 11:16:00;;;;;;;7.43;2.05;;;;;;;-145.52;100.00;57022.44;5075178;28;20032;-72
2022/05/14 11:18:27;;;;;;;7.70;2.58;;;;;;;-145.52;100.00;57022.44;5075881;28;20111;-71
2022/05/14 11:20:57;;;;;;;7.28;2.28;;;;;;;-145.52;100.00;57022.44;5074083;28;20044;-72
2022/05/14 11:23:23;;;;;;;6.35;1.90;;;;;;;-145.52;100.00;57022.44;5075342;28;20040;-70
2022/05/14 11:26:10;;;;;;;7.22;2.13;;;;;;;-145.52;100.00;57022.44;5073419;28;20170;-68
2022/05/14 11:28:36;;;;;;;7.95;2.40;;;;;;;-145.52;100.00;57022.44;5067143;28;20174;-69
2022/05/14 11:31:17;;;;;;;7.85;1.85;;;;;;;-145.52;100.00;57022.44;5071198;28;20036;-71
2022/05/14 11:33:44;;;;;;;4.93;1.80;;;;;;;-145.52;100.00;57022.44;5072919;28;20036;-70